createdAt,value
2018-09-04T00:00:58.597Z,66.85
2018-09-04T00:02:02.132Z,66.68
2018-09-04T00:03:05.741Z,66.89
2018-09-04T00:04:09.167Z,66.66
2018-09-04T00:05:12.584Z,66.80
2018-09-04T00:06:15.986Z,66.67
2018-09-04T00:07:22.609Z,66.68
2018-09-04T00:08:25.981Z,66.83
2018-09-04T00:09:29.429Z,67.00
2018-09-04T00:10:32.817Z,67.31
2018-09-04T00:11:36.246Z,66.86
2018-09-04T00:14:12.353Z,66.70
2018-09-04T00:15:15.786Z,66.72
2018-09-04T00:16:19.634Z,66.87
2018-09-04T00:17:23.018Z,66.83
2018-09-04T00:18:26.468Z,67.05
2018-09-04T00:19:29.901Z,66.77
2018-09-04T00:20:33.332Z,66.54
2018-09-04T00:21:36.698Z,66.55
2018-09-04T00:22:40.123Z,66.89
2018-09-04T00:23:43.561Z,66.69
2018-09-04T00:24:46.972Z,66.79
2018-09-04T00:25:50.370Z,66.94
2018-09-04T00:26:53.763Z,66.71
2018-09-04T00:27:57.150Z,66.98
2018-09-04T00:29:00.579Z,66.48
2018-09-04T00:30:04.174Z,66.85
2018-09-04T00:31:07.550Z,66.69
2018-09-04T00:32:10.930Z,66.61
2018-09-04T00:33:14.321Z,66.66
2018-09-04T00:34:17.827Z,66.52
2018-09-04T00:35:21.250Z,66.78
2018-09-04T00:36:24.682Z,66.88
2018-09-04T00:37:28.149Z,66.68
2018-09-04T00:38:31.581Z,66.67
2018-09-04T00:39:34.938Z,66.74
2018-09-04T00:40:38.360Z,66.80
2018-09-04T00:41:41.784Z,67.19
2018-09-04T00:42:45.223Z,67.04
2018-09-04T00:43:48.602Z,66.74
2018-09-04T00:44:52.187Z,67.06
2018-09-04T00:45:55.685Z,66.89
2018-09-04T00:46:59.462Z,66.72
2018-09-04T00:48:02.853Z,66.90
2018-09-04T00:49:06.306Z,66.77
2018-09-04T00:50:09.804Z,66.79
2018-09-04T00:51:13.232Z,66.66
2018-09-04T00:52:16.640Z,67.02
2018-09-04T00:53:20.339Z,66.83
2018-09-04T00:54:23.764Z,66.72
2018-09-04T00:55:27.210Z,66.71
2018-09-04T00:56:30.656Z,66.63
2018-09-04T00:57:34.066Z,66.38
2018-09-04T00:58:37.464Z,66.78
2018-09-04T00:59:40.873Z,66.59
2018-09-04T01:00:44.313Z,66.35
2018-09-04T01:01:47.711Z,66.71
2018-09-04T01:02:51.084Z,66.77
2018-09-04T01:03:54.466Z,66.67
2018-09-04T01:04:57.871Z,66.51
2018-09-04T01:06:01.258Z,66.48
2018-09-04T01:07:04.749Z,66.28
2018-09-04T01:08:08.133Z,66.48
2018-09-04T01:09:14.099Z,66.34
2018-09-04T01:10:17.520Z,66.39
2018-09-04T01:11:20.913Z,66.23
2018-09-04T01:12:24.343Z,66.23
2018-09-04T01:13:27.738Z,66.23
2018-09-04T01:14:31.132Z,66.40
2018-09-04T01:15:34.732Z,66.51
2018-09-04T01:16:38.146Z,66.36
2018-09-04T01:17:41.759Z,66.47
2018-09-04T01:18:45.340Z,66.88
2018-09-04T01:19:48.805Z,66.62
2018-09-04T01:20:52.221Z,66.59
2018-09-04T01:21:55.687Z,66.21
2018-09-04T01:22:59.094Z,66.41
2018-09-04T01:24:02.542Z,66.57
2018-09-04T01:25:06.008Z,66.48
2018-09-04T01:26:09.418Z,66.56
2018-09-04T01:27:12.793Z,66.26
2018-09-04T01:28:16.223Z,66.26
2018-09-04T01:29:19.609Z,66.51
2018-09-04T01:30:23.024Z,66.31
2018-09-04T01:31:26.440Z,66.28
2018-09-04T01:32:29.908Z,66.15
2018-09-04T01:33:33.303Z,66.22
2018-09-04T01:34:36.703Z,66.30
2018-09-04T01:35:40.158Z,66.05
2018-09-04T01:36:43.528Z,66.40
2018-09-04T01:37:46.941Z,66.30
2018-09-04T01:38:50.388Z,66.16
2018-09-04T01:39:53.816Z,66.21
2018-09-04T01:40:57.292Z,66.37
2018-09-04T01:42:00.678Z,66.30
2018-09-04T01:43:04.054Z,66.32
2018-09-04T01:44:07.468Z,66.40
2018-09-04T01:45:10.852Z,66.34
2018-09-04T01:46:14.256Z,66.12
2018-09-04T01:47:17.650Z,66.18
2018-09-04T01:48:21.137Z,66.22
2018-09-04T01:49:24.569Z,66.03
2018-09-04T01:50:28.023Z,66.10
2018-09-04T01:51:31.420Z,66.06
2018-09-04T01:52:34.825Z,66.25
2018-09-04T01:53:38.227Z,66.30
2018-09-04T01:54:41.616Z,66.08
2018-09-04T01:55:45.102Z,66.07
2018-09-04T01:56:48.475Z,66.13
2018-09-04T01:57:51.882Z,66.27
2018-09-04T01:58:55.299Z,66.14
2018-09-04T01:59:58.730Z,66.16
2018-09-04T02:01:02.252Z,66.19
2018-09-04T02:02:05.862Z,66.31
2018-09-04T02:03:09.263Z,66.25
2018-09-04T02:04:12.701Z,66.41
2018-09-04T02:05:16.120Z,66.39
2018-09-04T02:06:19.543Z,66.40
2018-09-04T02:07:22.925Z,66.04
2018-09-04T02:08:26.883Z,66.29
2018-09-04T02:09:30.370Z,66.30
2018-09-04T02:10:33.763Z,66.30
2018-09-04T02:11:37.242Z,66.35
2018-09-04T02:12:40.655Z,66.13
2018-09-04T02:13:44.063Z,66.20
2018-09-04T02:14:47.495Z,66.04
2018-09-04T02:15:50.993Z,66.24
2018-09-04T02:16:54.378Z,66.07
2018-09-04T02:17:57.883Z,66.12
2018-09-04T02:19:01.332Z,65.85
2018-09-04T02:20:05.000Z,65.96
2018-09-04T02:21:08.431Z,65.86
2018-09-04T02:22:11.818Z,65.83
2018-09-04T02:23:15.231Z,65.82
2018-09-04T02:24:18.667Z,66.19
2018-09-04T02:25:22.083Z,65.95
2018-09-04T02:26:25.466Z,66.09
2018-09-04T02:27:28.860Z,66.04
2018-09-04T02:28:32.320Z,66.15
2018-09-04T02:29:35.691Z,65.77
2018-09-04T02:30:39.070Z,66.35
2018-09-04T02:31:42.495Z,66.09
2018-09-04T02:32:45.904Z,66.02
2018-09-04T02:33:49.320Z,66.40
2018-09-04T02:34:52.753Z,66.00
2018-09-04T02:35:56.168Z,66.15
2018-09-04T02:36:59.603Z,65.87
2018-09-04T02:38:03.026Z,65.86
2018-09-04T02:39:09.083Z,66.04
2018-09-04T02:40:12.457Z,66.30
2018-09-04T02:41:15.868Z,66.30
2018-09-04T02:42:19.256Z,66.19
2018-09-04T02:43:22.663Z,66.26
2018-09-04T02:44:26.097Z,66.07
2018-09-04T02:45:29.523Z,66.25
2018-09-04T02:46:32.927Z,66.32
2018-09-04T02:47:36.374Z,66.14
2018-09-04T02:48:39.777Z,66.23
2018-09-04T02:49:43.159Z,66.56
2018-09-04T02:50:46.561Z,66.36
2018-09-04T02:51:50.010Z,66.06
2018-09-04T02:52:53.402Z,66.15
2018-09-04T02:53:56.870Z,66.21
2018-09-04T02:55:00.300Z,66.44
2018-09-04T02:56:03.725Z,66.18
2018-09-04T02:57:07.106Z,66.23
2018-09-04T02:58:11.006Z,66.26
2018-09-04T02:59:14.406Z,66.37
2018-09-04T03:00:17.794Z,66.36
2018-09-04T03:01:21.192Z,66.27
2018-09-04T03:02:24.620Z,66.49
2018-09-04T03:03:28.042Z,66.27
2018-09-04T03:04:31.428Z,66.41
2018-09-04T03:05:34.912Z,66.59
2018-09-04T03:06:38.332Z,66.39
2018-09-04T03:07:41.763Z,66.50
2018-09-04T03:08:45.199Z,66.52
2018-09-04T03:09:48.723Z,66.55
2018-09-04T03:10:52.124Z,66.58
2018-09-04T03:11:55.465Z,66.38
2018-09-04T03:12:58.872Z,66.36
2018-09-04T03:14:02.440Z,66.51
2018-09-04T03:15:06.112Z,66.44
2018-09-04T03:16:09.525Z,66.67
2018-09-04T03:17:12.917Z,66.76
2018-09-04T03:18:16.312Z,66.43
2018-09-04T03:19:19.733Z,66.53
2018-09-04T03:20:23.109Z,66.39
2018-09-04T03:21:26.520Z,66.74
2018-09-04T03:22:29.917Z,66.56
2018-09-04T03:23:33.289Z,66.52
2018-09-04T03:24:36.697Z,66.52
2018-09-04T03:25:40.078Z,66.43
2018-09-04T03:26:43.474Z,66.67
2018-09-04T03:27:46.845Z,66.31
2018-09-04T03:28:50.261Z,66.84
2018-09-04T03:29:53.690Z,66.46
2018-09-04T03:30:57.158Z,66.43
2018-09-04T03:32:00.534Z,66.64
2018-09-04T03:33:03.981Z,66.72
2018-09-04T03:34:07.368Z,66.86
2018-09-04T03:35:10.792Z,66.55
2018-09-04T03:36:14.198Z,66.47
2018-09-04T03:37:17.684Z,66.61
2018-09-04T03:38:21.090Z,66.76
2018-09-04T03:39:24.488Z,67.01
2018-09-04T03:40:27.955Z,66.93
2018-09-04T03:41:31.336Z,66.92
2018-09-04T03:42:34.773Z,66.86
2018-09-04T03:43:38.204Z,66.97
2018-09-04T03:44:41.605Z,66.66
2018-09-04T03:45:45.062Z,66.69
2018-09-04T03:46:49.303Z,66.68
2018-09-04T03:47:52.700Z,66.68
2018-09-04T03:48:56.080Z,67.22
2018-09-04T03:49:59.482Z,66.77
2018-09-04T03:51:02.972Z,67.10
2018-09-04T03:52:06.539Z,66.82
2018-09-04T03:53:09.891Z,67.25
2018-09-04T03:54:13.301Z,66.91
2018-09-04T03:55:16.674Z,66.99
2018-09-04T03:56:20.057Z,67.01
2018-09-04T03:57:23.490Z,66.56
2018-09-04T03:58:26.966Z,66.83
2018-09-04T03:59:30.401Z,66.98
2018-09-04T04:00:33.820Z,67.03
2018-09-04T04:01:37.237Z,66.77
2018-09-04T04:02:41.094Z,66.81
2018-09-04T04:03:44.477Z,66.85
2018-09-04T04:04:47.881Z,66.87
2018-09-04T04:05:51.279Z,66.94
2018-09-04T04:06:54.684Z,67.05
2018-09-04T04:07:58.084Z,66.83
2018-09-04T04:09:01.535Z,66.74
2018-09-04T04:10:05.007Z,67.05
2018-09-04T04:11:08.438Z,66.89
2018-09-04T04:12:11.822Z,66.95
2018-09-04T04:13:15.200Z,66.97
2018-09-04T04:14:18.604Z,66.91
2018-09-04T04:15:22.004Z,66.94
2018-09-04T04:16:25.444Z,67.08
2018-09-04T04:17:28.894Z,67.15
2018-09-04T04:18:32.285Z,66.91
2018-09-04T04:19:35.675Z,67.19
2018-09-04T04:20:39.040Z,67.30
2018-09-04T04:21:42.421Z,66.99
2018-09-04T04:22:46.136Z,67.45
2018-09-04T04:23:49.583Z,67.40
2018-09-04T04:24:53.409Z,67.08
2018-09-04T04:25:58.116Z,66.95
2018-09-04T04:27:01.589Z,67.11
2018-09-04T04:28:04.981Z,67.05
2018-09-04T04:29:08.417Z,67.03
2018-09-04T04:30:11.944Z,67.03
2018-09-04T04:31:15.354Z,67.12
2018-09-04T04:32:18.784Z,67.30
2018-09-04T04:33:22.367Z,67.17
2018-09-04T04:34:25.796Z,67.12
2018-09-04T04:35:29.198Z,67.15
2018-09-04T04:36:32.588Z,67.37
2018-09-04T04:37:36.004Z,67.35
2018-09-04T04:38:39.458Z,67.20
2018-09-04T04:39:42.865Z,67.21
2018-09-04T04:40:46.272Z,67.26
2018-09-04T04:41:49.746Z,67.50
2018-09-04T04:42:53.132Z,67.23
2018-09-04T04:43:56.548Z,67.36
2018-09-04T04:44:59.969Z,67.09
2018-09-04T04:46:03.422Z,67.35
2018-09-04T04:47:06.824Z,67.20
2018-09-04T04:48:10.254Z,67.27
2018-09-04T04:49:13.658Z,67.17
2018-09-04T04:50:17.864Z,67.30
2018-09-04T04:51:21.298Z,67.12
2018-09-04T04:52:24.716Z,67.16
2018-09-04T04:53:28.256Z,67.42
2018-09-04T04:54:31.870Z,67.37
2018-09-04T04:55:35.344Z,67.30
2018-09-04T04:56:38.770Z,67.19
2018-09-04T04:57:42.179Z,67.33
2018-09-04T04:58:45.610Z,67.26
2018-09-04T04:59:49.031Z,67.51
2018-09-04T05:00:52.443Z,67.41
2018-09-04T05:01:55.856Z,67.21
2018-09-04T05:02:59.326Z,66.93
2018-09-04T05:04:02.771Z,67.51
2018-09-04T05:05:06.488Z,67.75
2018-09-04T05:06:09.922Z,67.42
2018-09-04T05:07:13.331Z,67.65
2018-09-04T05:08:16.845Z,67.62
2018-09-04T05:09:20.241Z,67.45
2018-09-04T05:10:23.680Z,67.37
2018-09-04T05:11:27.177Z,67.50
2018-09-04T05:12:30.654Z,67.66
2018-09-04T05:13:34.111Z,67.37
2018-09-04T05:14:37.551Z,67.28
2018-09-04T05:15:40.914Z,67.48
2018-09-04T05:16:44.366Z,67.33
2018-09-04T05:17:47.803Z,67.29
2018-09-04T05:18:51.425Z,67.23
2018-09-04T05:19:54.810Z,67.27
2018-09-04T05:20:58.386Z,67.34
2018-09-04T05:22:01.999Z,67.44
2018-09-04T05:23:05.646Z,67.61
2018-09-04T05:24:09.084Z,67.34
2018-09-04T05:25:12.462Z,67.49
2018-09-04T05:26:15.819Z,67.48
2018-09-04T05:27:19.238Z,67.61
2018-09-04T05:28:22.604Z,67.58
2018-09-04T05:29:26.295Z,67.64
2018-09-04T05:30:29.700Z,67.34
2018-09-04T05:31:37.787Z,67.39
2018-09-04T05:32:44.774Z,66.85
2018-09-04T05:33:48.219Z,67.25
2018-09-04T05:34:51.606Z,67.31
2018-09-04T05:35:56.844Z,67.02
2018-09-04T05:37:00.457Z,67.22
2018-09-04T05:38:03.867Z,67.15
2018-09-04T05:39:09.972Z,66.99
2018-09-04T05:40:14.321Z,67.03
2018-09-04T05:41:17.693Z,66.55
2018-09-04T05:42:24.203Z,66.69
2018-09-04T05:43:59.766Z,67.01
2018-09-04T05:45:04.347Z,67.07
2018-09-04T05:46:10.976Z,67.07
2018-09-04T05:47:14.499Z,66.70
2018-09-04T05:48:18.086Z,66.38
2018-09-04T05:49:23.730Z,66.20
2018-09-04T05:50:27.216Z,66.04
2018-09-04T05:51:30.651Z,65.84
2018-09-04T05:52:34.070Z,65.75
2018-09-04T05:53:37.622Z,65.64
2018-09-04T05:54:41.016Z,65.25
2018-09-04T05:55:44.498Z,65.39
2018-09-04T05:56:47.925Z,65.71
2018-09-04T05:57:51.307Z,65.63
2018-09-04T05:58:54.740Z,65.39
2018-09-04T05:59:58.341Z,65.44
2018-09-04T06:01:03.100Z,65.98
2018-09-04T06:02:06.533Z,66.08
2018-09-04T06:03:09.920Z,66.24
2018-09-04T06:04:13.383Z,65.97
2018-09-04T06:05:16.818Z,65.92
2018-09-04T06:06:20.235Z,65.87
2018-09-04T06:07:23.641Z,66.00
2018-09-04T06:08:27.156Z,66.14
2018-09-04T06:09:30.628Z,65.51
2018-09-04T06:10:34.091Z,65.58
2018-09-04T06:11:37.528Z,65.58
2018-09-04T06:12:41.010Z,65.63
2018-09-04T06:13:44.432Z,65.61
2018-09-04T06:14:47.840Z,65.75
2018-09-04T06:15:51.256Z,65.49
2018-09-04T06:16:54.671Z,65.50
2018-09-04T06:17:58.710Z,65.37
2018-09-04T06:19:02.244Z,65.44
2018-09-04T06:20:06.049Z,65.55
2018-09-04T06:21:09.361Z,65.74
2018-09-04T06:22:12.790Z,65.27
2018-09-04T06:23:16.245Z,65.39
2018-09-04T06:24:19.605Z,65.41
2018-09-04T06:25:23.063Z,65.50
2018-09-04T06:26:26.492Z,65.36
2018-09-04T06:27:30.021Z,65.28
2018-09-04T06:28:33.447Z,65.29
2018-09-04T06:29:36.844Z,65.09
2018-09-04T06:30:40.320Z,65.36
2018-09-04T06:31:43.708Z,65.21
2018-09-04T06:32:47.148Z,65.18
2018-09-04T06:33:50.553Z,65.14
2018-09-04T06:34:53.972Z,65.08
2018-09-04T06:35:57.365Z,64.97
2018-09-04T06:37:00.827Z,64.90
2018-09-04T06:38:04.427Z,65.01
2018-09-04T06:39:09.838Z,65.42
2018-09-04T06:40:13.248Z,64.79
2018-09-04T06:41:16.598Z,64.99
2018-09-04T06:42:20.005Z,65.03
2018-09-04T06:43:23.409Z,65.07
2018-09-04T06:44:27.787Z,65.13
2018-09-04T06:45:31.273Z,64.79
2018-09-04T06:46:35.012Z,64.84
2018-09-04T06:47:38.324Z,64.66
2018-09-04T06:48:41.764Z,64.68
2018-09-04T06:49:45.210Z,65.11
2018-09-04T06:50:48.688Z,64.74
2018-09-04T06:51:52.102Z,64.97
2018-09-04T06:52:55.488Z,64.87
2018-09-04T06:53:58.958Z,64.87
2018-09-04T06:55:02.385Z,64.77
2018-09-04T06:56:06.514Z,64.71
2018-09-04T06:57:09.987Z,65.01
2018-09-04T06:58:13.804Z,64.73
2018-09-04T06:59:17.275Z,65.00
2018-09-04T07:00:20.678Z,64.49
2018-09-04T07:01:24.058Z,64.61
2018-09-04T07:02:27.464Z,64.77
2018-09-04T07:03:30.861Z,64.75
2018-09-04T07:04:34.301Z,64.83
2018-09-04T07:05:37.710Z,64.76
2018-09-04T07:06:41.091Z,64.61
2018-09-04T07:07:44.484Z,64.71
2018-09-04T07:08:47.876Z,64.67
2018-09-04T07:09:51.281Z,64.54
2018-09-04T07:10:54.764Z,64.75
2018-09-04T07:11:58.208Z,64.74
2018-09-04T07:13:01.651Z,64.64
2018-09-04T07:14:05.066Z,64.50
2018-09-04T07:15:08.814Z,64.40
2018-09-04T07:16:12.211Z,64.44
2018-09-04T07:17:15.599Z,64.59
2018-09-04T07:18:18.983Z,64.46
2018-09-04T07:19:22.427Z,64.41
2018-09-04T07:20:25.880Z,64.43
2018-09-04T07:21:29.297Z,64.15
2018-09-04T07:22:32.732Z,64.49
2018-09-04T07:23:36.105Z,64.11
2018-09-04T07:24:39.528Z,64.20
2018-09-04T07:25:42.988Z,64.39
2018-09-04T07:26:47.002Z,64.24
2018-09-04T07:27:50.420Z,64.17
2018-09-04T07:28:53.888Z,64.18
2018-09-04T07:29:57.347Z,64.22
2018-09-04T07:31:00.839Z,64.21
2018-09-04T07:32:04.298Z,64.43
2018-09-04T07:33:07.906Z,64.31
2018-09-04T07:34:11.282Z,64.33
2018-09-04T07:35:14.701Z,64.18
2018-09-04T07:36:18.126Z,64.02
2018-09-04T07:37:21.549Z,64.13
2018-09-04T07:38:24.938Z,64.05
2018-09-04T07:39:28.355Z,64.30
2018-09-04T07:40:31.974Z,64.14
2018-09-04T07:41:35.430Z,64.26
2018-09-04T07:42:38.871Z,64.06
2018-09-04T07:43:42.412Z,63.84
2018-09-04T07:44:45.813Z,63.99
2018-09-04T07:45:49.252Z,63.89
2018-09-04T07:46:52.687Z,64.12
2018-09-04T07:47:56.107Z,63.79
2018-09-04T07:48:59.558Z,63.98
2018-09-04T07:50:02.979Z,63.86
2018-09-04T07:51:06.390Z,63.90
2018-09-04T07:52:09.820Z,63.71
2018-09-04T07:53:13.275Z,63.82
2018-09-04T07:54:16.684Z,64.01
2018-09-04T07:55:20.105Z,63.71
2018-09-04T07:56:23.594Z,63.88
2018-09-04T07:57:27.368Z,63.72
2018-09-04T07:58:30.830Z,63.89
2018-09-04T07:59:34.234Z,63.69
2018-09-04T08:00:37.660Z,64.01
2018-09-04T08:01:41.103Z,63.81
2018-09-04T08:02:44.498Z,63.95
2018-09-04T08:03:47.961Z,63.69
2018-09-04T08:04:51.399Z,63.42
2018-09-04T08:05:54.795Z,63.42
2018-09-04T08:06:58.247Z,63.68
2018-09-04T08:08:01.748Z,63.94
2018-09-04T08:09:07.025Z,63.99
2018-09-04T08:10:10.571Z,63.52
2018-09-04T08:11:13.999Z,63.84
2018-09-04T08:12:17.426Z,63.53
2018-09-04T08:13:20.915Z,63.61
2018-09-04T08:14:24.331Z,63.44
2018-09-04T08:15:27.753Z,63.75
2018-09-04T08:16:31.346Z,63.44
2018-09-04T08:17:34.740Z,63.64
2018-09-04T08:18:38.308Z,63.58
2018-09-04T08:19:41.679Z,63.26
2018-09-04T08:20:45.142Z,63.53
2018-09-04T08:21:48.567Z,63.30
2018-09-04T08:22:54.303Z,63.51
2018-09-04T08:23:57.733Z,63.35
2018-09-04T08:25:01.145Z,63.58
2018-09-04T08:26:04.651Z,63.58
2018-09-04T08:27:08.040Z,63.54
2018-09-04T08:28:11.515Z,63.43
2018-09-04T08:29:14.908Z,63.21
2018-09-04T08:30:18.320Z,63.32
2018-09-04T08:31:21.828Z,63.33
2018-09-04T08:32:25.331Z,63.41
2018-09-04T08:33:28.799Z,63.09
2018-09-04T08:34:32.328Z,63.16
2018-09-04T08:35:35.834Z,63.20
2018-09-04T08:36:39.250Z,63.39
2018-09-04T08:37:42.636Z,63.09
2018-09-04T08:38:49.003Z,62.93
2018-09-04T08:39:52.417Z,63.13
2018-09-04T08:40:55.816Z,63.13
2018-09-04T08:41:59.264Z,63.09
2018-09-04T08:43:02.795Z,62.84
2018-09-04T08:44:06.226Z,63.11
2018-09-04T08:45:09.617Z,63.25
2018-09-04T08:46:13.036Z,62.91
2018-09-04T08:47:16.554Z,62.96
2018-09-04T08:48:21.419Z,62.91
2018-09-04T08:49:24.844Z,62.95
2018-09-04T08:50:29.514Z,62.79
2018-09-04T08:51:33.068Z,62.82
2018-09-04T08:52:36.560Z,62.74
2018-09-04T08:53:40.044Z,63.05
2018-09-04T08:54:43.590Z,62.91
2018-09-04T08:55:46.999Z,62.99
2018-09-04T08:56:50.426Z,62.90
2018-09-04T08:57:53.923Z,62.98
2018-09-04T08:58:57.349Z,62.98
2018-09-04T09:00:00.734Z,62.99
2018-09-04T09:01:04.149Z,62.83
2018-09-04T09:02:07.559Z,63.06
2018-09-04T09:03:11.041Z,62.86
2018-09-04T09:04:14.436Z,62.66
2018-09-04T09:05:17.871Z,62.71
2018-09-04T09:06:21.266Z,62.70
2018-09-04T09:07:24.737Z,62.67
2018-09-04T09:08:28.200Z,62.61
2018-09-04T09:09:31.609Z,62.45
2018-09-04T09:10:35.035Z,62.50
2018-09-04T09:11:38.429Z,62.74
2018-09-04T09:12:41.859Z,62.40
2018-09-04T09:13:45.262Z,62.72
2018-09-04T09:14:48.789Z,62.69
2018-09-04T09:15:52.240Z,62.63
2018-09-04T09:16:55.656Z,62.38
2018-09-04T09:17:59.083Z,62.53
2018-09-04T09:19:02.489Z,62.59
2018-09-04T09:20:06.213Z,62.44
2018-09-04T09:21:09.738Z,62.62
2018-09-04T09:22:13.130Z,62.46
2018-09-04T09:23:16.530Z,62.74
2018-09-04T09:24:19.996Z,62.84
2018-09-04T09:25:23.417Z,62.59
2018-09-04T09:26:26.828Z,62.58
2018-09-04T09:27:30.249Z,62.50
2018-09-04T09:28:33.672Z,62.53
2018-09-04T09:29:37.061Z,62.44
2018-09-04T09:30:40.449Z,62.17
2018-09-04T09:31:43.846Z,62.56
2018-09-04T09:32:47.224Z,62.60
2018-09-04T09:33:50.704Z,62.53
2018-09-04T09:34:54.111Z,62.70
2018-09-04T09:35:58.209Z,62.38
2018-09-04T09:37:01.644Z,62.44
2018-09-04T09:38:05.045Z,62.53
2018-09-04T09:39:09.782Z,62.37
2018-09-04T09:40:13.378Z,62.49
2018-09-04T09:41:16.758Z,62.27
2018-09-04T09:42:20.149Z,62.51
2018-09-04T09:43:23.592Z,62.53
2018-09-04T09:44:26.995Z,62.38
2018-09-04T09:45:30.450Z,62.65
2018-09-04T09:46:33.868Z,62.27
2018-09-04T09:47:42.562Z,62.46
2018-09-04T09:48:46.208Z,62.28
2018-09-04T09:49:49.617Z,62.02
2018-09-04T09:50:53.101Z,62.17
2018-09-04T09:51:56.466Z,61.88
2018-09-04T09:53:00.012Z,62.25
2018-09-04T09:54:03.409Z,62.07
2018-09-04T09:55:08.074Z,61.76
2018-09-04T09:56:12.204Z,61.71
2018-09-04T09:57:15.605Z,61.87
2018-09-04T09:58:19.033Z,61.81
2018-09-04T09:59:22.468Z,61.87
2018-09-04T10:00:31.089Z,61.92
2018-09-04T10:02:39.970Z,61.96
2018-09-04T10:03:48.794Z,61.31
2018-09-04T10:04:52.187Z,61.47
2018-09-04T10:05:55.864Z,61.31
2018-09-04T10:06:59.293Z,61.76
2018-09-04T10:08:02.778Z,61.75
2018-09-04T10:09:07.842Z,61.64
2018-09-04T10:10:11.463Z,61.58
2018-09-04T10:11:14.885Z,61.80
2018-09-04T10:12:18.302Z,61.45
2018-09-04T10:13:21.696Z,61.75
2018-09-04T10:14:25.136Z,61.73
2018-09-04T10:15:28.665Z,61.66
2018-09-04T10:16:32.092Z,61.71
2018-09-04T10:17:35.515Z,61.62
2018-09-04T10:18:38.925Z,61.45
2018-09-04T10:19:42.337Z,61.36
2018-09-04T10:20:45.818Z,61.63
2018-09-04T10:21:49.240Z,61.61
2018-09-04T10:22:53.112Z,61.72
2018-09-04T10:23:56.541Z,61.69
2018-09-04T10:25:00.009Z,61.59
2018-09-04T10:26:03.481Z,61.46
2018-09-04T10:27:06.846Z,61.88
2018-09-04T10:28:10.252Z,61.75
2018-09-04T10:29:13.805Z,61.99
2018-09-04T10:30:17.272Z,61.76
2018-09-04T10:31:20.686Z,61.73
2018-09-04T10:32:24.116Z,61.96
2018-09-04T10:33:28.227Z,61.99
2018-09-04T10:34:31.667Z,61.72
2018-09-04T10:35:35.067Z,61.70
2018-09-04T10:36:38.461Z,61.56
2018-09-04T10:37:41.912Z,61.73
2018-09-04T10:38:45.319Z,61.70
2018-09-04T10:39:53.984Z,61.88
2018-09-04T10:41:01.224Z,61.96
2018-09-04T10:42:04.646Z,61.75
2018-09-04T10:43:08.042Z,62.22
2018-09-04T10:44:11.502Z,62.32
2018-09-04T10:45:20.172Z,62.06
2018-09-04T10:46:23.611Z,62.34
2018-09-04T10:47:27.461Z,62.16
2018-09-04T10:48:31.293Z,62.45
2018-09-04T10:49:34.728Z,62.22
2018-09-04T10:50:38.187Z,62.27
2018-09-04T10:51:41.572Z,62.28
2018-09-04T10:52:44.980Z,62.14
2018-09-04T10:53:48.375Z,62.23
2018-09-04T10:54:51.842Z,62.22
2018-09-04T10:55:55.473Z,62.24
2018-09-04T10:57:00.650Z,62.08
2018-09-04T10:58:04.363Z,62.37
2018-09-04T10:59:08.380Z,62.32
2018-09-04T11:00:11.865Z,62.24
2018-09-04T11:01:15.430Z,62.53
2018-09-04T11:02:19.820Z,62.27
2018-09-04T11:03:23.305Z,62.60
2018-09-04T11:04:26.727Z,62.84
2018-09-04T11:05:30.204Z,63.45
2018-09-04T11:06:33.683Z,64.12
2018-09-04T11:07:37.109Z,64.18
2018-09-04T11:08:40.547Z,64.71
2018-09-04T11:09:44.171Z,64.92
2018-09-04T11:10:47.538Z,65.04
2018-09-04T11:11:51.751Z,65.24
2018-09-04T11:12:55.234Z,64.79
2018-09-04T11:13:58.796Z,64.03
2018-09-04T11:15:02.255Z,64.02
2018-09-04T11:16:05.668Z,63.71
2018-09-04T11:17:09.193Z,63.94
2018-09-04T11:18:12.629Z,64.70
2018-09-04T11:19:16.367Z,65.05
2018-09-04T11:20:19.746Z,64.73
2018-09-04T11:21:23.175Z,65.26
2018-09-04T11:22:26.644Z,65.58
2018-09-04T11:23:30.162Z,65.15
2018-09-04T11:24:33.816Z,65.16
2018-09-04T11:25:37.229Z,65.02
2018-09-04T11:26:40.654Z,64.85
2018-09-04T11:27:45.462Z,64.70
2018-09-04T11:28:51.992Z,64.45
2018-09-04T11:29:55.449Z,64.64
2018-09-04T11:30:59.394Z,64.32
2018-09-04T11:32:02.790Z,64.24
2018-09-04T11:33:06.198Z,64.43
2018-09-04T11:34:09.578Z,64.13
2018-09-04T11:35:13.024Z,63.96
2018-09-04T11:36:16.394Z,64.63
2018-09-04T11:37:19.784Z,64.34
2018-09-04T11:38:23.212Z,64.30
2018-09-04T11:39:26.630Z,64.32
2018-09-04T11:40:30.169Z,64.37
2018-09-04T11:41:33.558Z,64.32
2018-09-04T11:42:37.160Z,64.48
2018-09-04T11:43:40.565Z,64.56
2018-09-04T11:44:44.600Z,64.71
2018-09-04T11:45:48.073Z,64.83
2018-09-04T11:46:51.670Z,64.78
2018-09-04T11:47:54.948Z,65.00
2018-09-04T11:48:58.387Z,64.95
2018-09-04T11:50:01.810Z,64.70
2018-09-04T11:51:06.019Z,65.12
2018-09-04T11:52:09.763Z,64.86
2018-09-04T11:53:13.210Z,65.04
2018-09-04T11:54:16.692Z,64.69
2018-09-04T11:55:20.208Z,64.92
2018-09-04T11:56:23.755Z,64.71
2018-09-04T11:57:27.815Z,64.92
2018-09-04T11:58:31.269Z,64.78
2018-09-04T11:59:40.396Z,64.35
2018-09-04T12:00:48.602Z,64.46
2018-09-04T12:01:55.557Z,64.32
2018-09-04T12:02:59.089Z,64.52
2018-09-04T12:04:02.663Z,64.50
2018-09-04T12:05:06.413Z,64.66
2018-09-04T12:06:09.912Z,64.21
2018-09-04T12:07:13.444Z,64.26
2018-09-04T12:08:16.903Z,64.36
2018-09-04T12:09:20.276Z,64.37
2018-09-04T12:10:23.669Z,64.36
2018-09-04T12:11:27.298Z,64.41
2018-09-04T12:12:32.363Z,64.50
2018-09-04T12:13:35.672Z,64.33
2018-09-04T12:14:39.205Z,64.39
2018-09-04T12:15:42.574Z,64.48
2018-09-04T12:16:46.021Z,64.36
2018-09-04T12:17:49.519Z,64.24
2018-09-04T12:18:52.958Z,64.48
2018-09-04T12:20:05.121Z,64.39
2018-09-04T12:21:10.713Z,64.17
2018-09-04T12:22:15.723Z,63.94
2018-09-04T12:23:20.502Z,63.90
2018-09-04T12:24:23.923Z,64.16
2018-09-04T12:25:27.382Z,64.23
2018-09-04T12:26:30.784Z,63.94
2018-09-04T12:27:34.189Z,63.91
2018-09-04T12:28:37.647Z,64.04
2018-09-04T12:29:41.760Z,64.21
2018-09-04T12:30:45.219Z,64.08
2018-09-04T12:31:48.677Z,63.85
2018-09-04T12:32:52.241Z,63.93
2018-09-04T12:33:55.674Z,64.32
2018-09-04T12:34:59.602Z,64.07
2018-09-04T12:36:03.046Z,64.11
2018-09-04T12:37:06.437Z,64.29
2018-09-04T12:38:12.319Z,64.14
2018-09-04T12:39:15.785Z,63.97
2018-09-04T12:40:19.360Z,64.19
2018-09-04T12:41:22.745Z,64.08
2018-09-04T12:42:28.050Z,64.08
2018-09-04T12:43:31.461Z,64.04
2018-09-04T12:44:34.889Z,63.89
2018-09-04T12:45:43.567Z,64.19
2018-09-04T12:46:46.946Z,64.32
2018-09-04T12:47:50.699Z,64.02
2018-09-04T12:48:54.160Z,63.80
2018-09-04T12:49:58.033Z,63.77
2018-09-04T12:51:02.477Z,64.17
2018-09-04T12:52:06.442Z,63.85
2018-09-04T12:53:10.233Z,64.21
2018-09-04T12:54:13.694Z,63.84
2018-09-04T12:55:17.379Z,64.09
2018-09-04T12:56:20.759Z,63.86
2018-09-04T12:57:24.685Z,63.84
2018-09-04T12:58:28.594Z,63.94
2018-09-04T12:59:32.332Z,63.85
2018-09-04T13:00:35.749Z,63.88
2018-09-04T13:01:39.142Z,63.99
2018-09-04T13:02:42.517Z,63.87
2018-09-04T13:03:46.009Z,63.61
2018-09-04T13:04:49.429Z,64.00
2018-09-04T13:05:52.848Z,63.63
2018-09-04T13:06:56.234Z,63.63
2018-09-04T13:07:59.694Z,63.67
2018-09-04T13:09:03.198Z,63.57
2018-09-04T13:10:06.730Z,63.69
2018-09-04T13:11:10.109Z,63.36
2018-09-04T13:12:13.510Z,63.79
2018-09-04T13:13:16.892Z,63.64
2018-09-04T13:14:20.325Z,63.92
2018-09-04T13:15:23.912Z,63.60
2018-09-04T13:16:27.593Z,64.12
2018-09-04T13:17:30.994Z,63.92
2018-09-04T13:18:34.402Z,63.92
2018-09-04T13:19:38.443Z,63.67
2018-09-04T13:20:41.817Z,64.07
2018-09-04T13:21:45.297Z,63.81
2018-09-04T13:22:48.691Z,63.76
2018-09-04T13:23:52.066Z,64.21
2018-09-04T13:24:55.468Z,63.88
2018-09-04T13:25:59.004Z,63.75
2018-09-04T13:27:02.700Z,63.91
2018-09-04T13:28:06.721Z,63.96
2018-09-04T13:29:10.103Z,63.79
2018-09-04T13:30:13.628Z,64.00
2018-09-04T13:31:17.128Z,63.98
2018-09-04T13:32:20.571Z,63.97
2018-09-04T13:33:24.015Z,64.01
2018-09-04T13:34:27.585Z,63.87
2018-09-04T13:35:31.126Z,63.84
2018-09-04T13:36:34.595Z,64.34
2018-09-04T13:37:37.976Z,63.94
2018-09-04T13:38:41.482Z,64.18
2018-09-04T13:39:44.880Z,64.01
2018-09-04T13:40:48.601Z,64.37
2018-09-04T13:41:52.022Z,64.23
2018-09-04T13:42:55.451Z,64.05